sensor_id;sensor_type;location;lat;lon;timestamp;temperature;humidity
17348;DHT22;8791;50.876;4.342;2022-08-01T00:01:48;22.00;99.90
17348;DHT22;8791;50.876;4.342;2022-08-01T00:04:15;22.00;99.90
17348;DHT22;8791;50.876;4.342;2022-08-01T00:06:42;21.90;99.90
17348;DHT22;8791;50.876;4.342;2022-08-01T00:09:10;22.00;99.90
17348;DHT22;8791;50.876;4.342;2022-08-01T00:11:37;22.00;99.90
17348;DHT22;8791;50.876;4.342;2022-08-01T00:14:04;21.90;99.90
17348;DHT22;8791;50.876;4.342;2022-08-01T00:16:30;21.90;99.90
17348;DHT22;8791;50.876;4.342;2022-08-01T00:18:57;21.90;99.90
17348;DHT22;8791;50.876;4.342;2022-08-01T00:21:24;21.90;99.90
17348;DHT22;8791;50.876;4.342;2022-08-01T00:23:51;22.00;99.90
17348;DHT22;8791;50.876;4.342;2022-08-01T00:26:19;22.00;99.90
17348;DHT22;8791;50.876;4.342;2022-08-01T00:28:46;22.00;99.90
17348;DHT22;8791;50.876;4.342;2022-08-01T00:31:13;21.90;99.90
17348;DHT22;8791;50.876;4.342;2022-08-01T00:33:40;21.90;99.90
17348;DHT22;8791;50.876;4.342;2022-08-01T00:36:07;21.90;99.90
17348;DHT22;8791;50.876;4.342;2022-08-01T00:38:33;22.00;99.90
17348;DHT22;8791;50.876;4.342;2022-08-01T00:41:00;21.90;99.90
17348;DHT22;8791;50.876;4.342;2022-08-01T00:43:29;21.90;99.90
17348;DHT22;8791;50.876;4.342;2022-08-01T00:45:55;22.00;99.90
17348;DHT22;8791;50.876;4.342;2022-08-01T00:48:22;22.00;99.90
17348;DHT22;8791;50.876;4.342;2022-08-01T00:50:49;22.00;99.90
17348;DHT22;8791;50.876;4.342;2022-08-01T00:53:16;22.00;99.90
17348;DHT22;8791;50.876;4.342;2022-08-01T00:55:43;21.90;99.90
17348;DHT22;8791;50.876;4.342;2022-08-01T00:58:10;21.90;99.90
17348;DHT22;8791;50.876;4.342;2022-08-01T01:00:38;22.10;99.90
17348;DHT22;8791;50.876;4.342;2022-08-01T01:03:05;21.90;99.90
17348;DHT22;8791;50.876;4.342;2022-08-01T01:05:36;21.90;99.90
17348;DHT22;8791;50.876;4.342;2022-08-01T01:08:10;22.00;99.90
17348;DHT22;8791;50.876;4.342;2022-08-01T01:10:42;22.00;99.90
17348;DHT22;8791;50.876;4.342;2022-08-01T01:13:15;22.00;99.90
17348;DHT22;8791;50.876;4.342;2022-08-01T01:15:49;22.10;99.90
17348;DHT22;8791;50.876;4.342;2022-08-01T01:18:22;22.00;99.90
17348;DHT22;8791;50.876;4.342;2022-08-01T01:20:53;21.90;99.90
17348;DHT22;8791;50.876;4.342;2022-08-01T01:23:36;21.80;99.90
17348;DHT22;8791;50.876;4.342;2022-08-01T01:26:30;21.80;99.90
17348;DHT22;8791;50.876;4.342;2022-08-01T01:29:05;21.80;99.90
17348;DHT22;8791;50.876;4.342;2022-08-01T01:31:40;21.70;99.90
17348;DHT22;8791;50.876;4.342;2022-08-01T01:34:09;21.60;99.90
17348;DHT22;8791;50.876;4.342;2022-08-01T01:36:38;21.60;99.90
17348;DHT22;8791;50.876;4.342;2022-08-01T01:39:06;21.70;99.90
17348;DHT22;8791;50.876;4.342;2022-08-01T01:41:35;21.60;99.90
17348;DHT22;8791;50.876;4.342;2022-08-01T01:44:05;21.50;99.90
17348;DHT22;8791;50.876;4.342;2022-08-01T01:46:33;21.40;99.90
17348;DHT22;8791;50.876;4.342;2022-08-01T01:49:01;21.40;99.90
17348;DHT22;8791;50.876;4.342;2022-08-01T01:51:29;21.40;99.90
17348;DHT22;8791;50.876;4.342;2022-08-01T01:53:57;21.40;99.90
17348;DHT22;8791;50.876;4.342;2022-08-01T01:56:27;21.40;99.90
17348;DHT22;8791;50.876;4.342;2022-08-01T01:58:57;21.30;99.90
17348;DHT22;8791;50.876;4.342;2022-08-01T02:01:29;21.30;99.90
17348;DHT22;8791;50.876;4.342;2022-08-01T02:03:56;21.20;99.90
17348;DHT22;8791;50.876;4.342;2022-08-01T02:06:25;21.00;99.90
17348;DHT22;8791;50.876;4.342;2022-08-01T02:08:54;21.10;99.90
17348;DHT22;8791;50.876;4.342;2022-08-01T02:11:21;21.10;99.90
17348;DHT22;8791;50.876;4.342;2022-08-01T02:13:52;21.10;99.90
17348;DHT22;8791;50.876;4.342;2022-08-01T02:16:21;21.10;99.90
17348;DHT22;8791;50.876;4.342;2022-08-01T02:18:50;21.20;99.90
17348;DHT22;8791;50.876;4.342;2022-08-01T02:21:22;21.20;99.90
17348;DHT22;8791;50.876;4.342;2022-08-01T02:23:50;21.30;99.90
17348;DHT22;8791;50.876;4.342;2022-08-01T02:26:18;21.30;99.90
17348;DHT22;8791;50.876;4.342;2022-08-01T02:28:49;21.30;99.90
17348;DHT22;8791;50.876;4.342;2022-08-01T02:31:19;21.30;99.90
17348;DHT22;8791;50.876;4.342;2022-08-01T02:33:53;21.40;99.90
17348;DHT22;8791;50.876;4.342;2022-08-01T02:36:24;21.40;99.90
17348;DHT22;8791;50.876;4.342;2022-08-01T02:38:53;21.30;99.90
17348;DHT22;8791;50.876;4.342;2022-08-01T02:41:22;21.20;99.90
17348;DHT22;8791;50.876;4.342;2022-08-01T02:43:51;21.20;99.90
17348;DHT22;8791;50.876;4.342;2022-08-01T02:46:22;21.10;99.90
17348;DHT22;8791;50.876;4.342;2022-08-01T02:48:54;21.20;99.90
17348;DHT22;8791;50.876;4.342;2022-08-01T02:51:23;21.20;99.90
17348;DHT22;8791;50.876;4.342;2022-08-01T02:53:53;21.20;99.90
17348;DHT22;8791;50.876;4.342;2022-08-01T02:56:22;21.20;99.90
17348;DHT22;8791;50.876;4.342;2022-08-01T02:58:50;21.10;99.90
17348;DHT22;8791;50.876;4.342;2022-08-01T03:01:18;21.20;99.90
17348;DHT22;8791;50.876;4.342;2022-08-01T03:03:46;21.20;99.90
17348;DHT22;8791;50.876;4.342;2022-08-01T03:06:15;21.20;99.90
17348;DHT22;8791;50.876;4.342;2022-08-01T03:08:45;21.10;99.90
17348;DHT22;8791;50.876;4.342;2022-08-01T03:11:15;21.10;99.90
17348;DHT22;8791;50.876;4.342;2022-08-01T03:13:43;21.10;99.90
17348;DHT22;8791;50.876;4.342;2022-08-01T03:16:12;21.20;99.90
17348;DHT22;8791;50.876;4.342;2022-08-01T03:18:41;21.20;99.90
17348;DHT22;8791;50.876;4.342;2022-08-01T03:21:12;21.30;99.90
17348;DHT22;8791;50.876;4.342;2022-08-01T03:23:41;21.20;99.90
17348;DHT22;8791;50.876;4.342;2022-08-01T03:26:09;21.00;99.90
17348;DHT22;8791;50.876;4.342;2022-08-01T03:28:37;20.90;99.90
17348;DHT22;8791;50.876;4.342;2022-08-01T03:31:05;20.80;99.90
17348;DHT22;8791;50.876;4.342;2022-08-01T03:33:32;20.70;99.90
17348;DHT22;8791;50.876;4.342;2022-08-01T03:36:00;20.70;99.90
17348;DHT22;8791;50.876;4.342;2022-08-01T03:38:31;20.60;99.90
17348;DHT22;8791;50.876;4.342;2022-08-01T03:41:05;20.70;99.90
17348;DHT22;8791;50.876;4.342;2022-08-01T03:43:38;20.80;99.90
17348;DHT22;8791;50.876;4.342;2022-08-01T03:46:09;20.80;99.90
17348;DHT22;8791;50.876;4.342;2022-08-01T03:48:42;20.80;99.90
17348;DHT22;8791;50.876;4.342;2022-08-01T03:51:10;20.80;99.90
17348;DHT22;8791;50.876;4.342;2022-08-01T03:53:38;20.90;99.90
17348;DHT22;8791;50.876;4.342;2022-08-01T03:56:10;20.80;99.90
17348;DHT22;8791;50.876;4.342;2022-08-01T03:58:38;20.70;99.90
17348;DHT22;8791;50.876;4.342;2022-08-01T04:01:06;20.60;99.90
17348;DHT22;8791;50.876;4.342;2022-08-01T04:03:35;20.50;99.90
17348;DHT22;8791;50.876;4.342;2022-08-01T04:06:04;20.40;99.90
17348;DHT22;8791;50.876;4.342;2022-08-01T04:08:35;20.40;99.90
17348;DHT22;8791;50.876;4.342;2022-08-01T04:11:02;20.30;99.90
17348;DHT22;8791;50.876;4.342;2022-08-01T04:13:30;20.30;99.90
17348;DHT22;8791;50.876;4.342;2022-08-01T04:15:58;20.30;99.90
17348;DHT22;8791;50.876;4.342;2022-08-01T04:18:25;20.20;99.90
17348;DHT22;8791;50.876;4.342;2022-08-01T04:20:52;20.30;99.90
17348;DHT22;8791;50.876;4.342;2022-08-01T04:23:22;20.30;99.90
17348;DHT22;8791;50.876;4.342;2022-08-01T04:25:51;20.40;99.90
17348;DHT22;8791;50.876;4.342;2022-08-01T04:28:19;20.50;99.90
17348;DHT22;8791;50.876;4.342;2022-08-01T04:30:50;20.60;99.90
17348;DHT22;8791;50.876;4.342;2022-08-01T04:33:19;20.40;99.90
17348;DHT22;8791;50.876;4.342;2022-08-01T04:35:47;20.40;99.90
17348;DHT22;8791;50.876;4.342;2022-08-01T04:38:17;20.60;99.90
17348;DHT22;8791;50.876;4.342;2022-08-01T04:40:47;20.60;99.90
17348;DHT22;8791;50.876;4.342;2022-08-01T04:43:16;20.50;99.90
17348;DHT22;8791;50.876;4.342;2022-08-01T04:45:45;20.30;99.90
17348;DHT22;8791;50.876;4.342;2022-08-01T04:48:16;20.50;99.90
17348;DHT22;8791;50.876;4.342;2022-08-01T04:50:45;20.40;99.90
17348;DHT22;8791;50.876;4.342;2022-08-01T04:53:13;20.40;99.90
17348;DHT22;8791;50.876;4.342;2022-08-01T04:55:42;20.60;99.90
17348;DHT22;8791;50.876;4.342;2022-08-01T04:58:09;20.60;99.90
17348;DHT22;8791;50.876;4.342;2022-08-01T05:00:36;20.60;99.90
17348;DHT22;8791;50.876;4.342;2022-08-01T05:03:03;20.50;99.90
17348;DHT22;8791;50.876;4.342;2022-08-01T05:05:31;20.60;99.90
17348;DHT22;8791;50.876;4.342;2022-08-01T05:07:59;20.60;99.90
17348;DHT22;8791;50.876;4.342;2022-08-01T05:10:26;20.60;99.90
17348;DHT22;8791;50.876;4.342;2022-08-01T05:12:53;20.60;99.90
17348;DHT22;8791;50.876;4.342;2022-08-01T05:15:20;20.60;99.90
17348;DHT22;8791;50.876;4.342;2022-08-01T05:17:47;20.60;99.90
17348;DHT22;8791;50.876;4.342;2022-08-01T05:20:14;20.60;99.90
17348;DHT22;8791;50.876;4.342;2022-08-01T05:22:43;20.80;99.90
17348;DHT22;8791;50.876;4.342;2022-08-01T05:25:10;20.80;99.90
17348;DHT22;8791;50.876;4.342;2022-08-01T05:27:37;20.80;99.90
17348;DHT22;8791;50.876;4.342;2022-08-01T05:30:06;20.70;99.90
17348;DHT22;8791;50.876;4.342;2022-08-01T05:32:34;20.60;99.90
17348;DHT22;8791;50.876;4.342;2022-08-01T05:35:01;20.80;99.90
17348;DHT22;8791;50.876;4.342;2022-08-01T05:37:28;20.90;99.90
17348;DHT22;8791;50.876;4.342;2022-08-01T05:39:56;21.00;99.90
17348;DHT22;8791;50.876;4.342;2022-08-01T05:42:23;21.10;99.90
17348;DHT22;8791;50.876;4.342;2022-08-01T05:44:50;21.20;99.90
17348;DHT22;8791;50.876;4.342;2022-08-01T05:47:17;21.00;99.90
17348;DHT22;8791;50.876;4.342;2022-08-01T05:49:45;21.10;99.90
17348;DHT22;8791;50.876;4.342;2022-08-01T05:52:12;21.10;99.90
17348;DHT22;8791;50.876;4.342;2022-08-01T05:54:39;21.10;99.90
17348;DHT22;8791;50.876;4.342;2022-08-01T05:57:08;21.10;99.90
17348;DHT22;8791;50.876;4.342;2022-08-01T05:59:34;21.10;99.90
17348;DHT22;8791;50.876;4.342;2022-08-01T06:02:01;21.20;99.90
17348;DHT22;8791;50.876;4.342;2022-08-01T06:04:28;21.30;99.90
17348;DHT22;8791;50.876;4.342;2022-08-01T06:06:55;21.20;99.90
17348;DHT22;8791;50.876;4.342;2022-08-01T06:09:22;21.10;99.90
17348;DHT22;8791;50.876;4.342;2022-08-01T06:11:49;21.20;99.90
17348;DHT22;8791;50.876;4.342;2022-08-01T06:14:17;21.30;99.90
17348;DHT22;8791;50.876;4.342;2022-08-01T06:16:44;21.40;99.90
17348;DHT22;8791;50.876;4.342;2022-08-01T06:19:10;21.40;99.90
17348;DHT22;8791;50.876;4.342;2022-08-01T06:21:37;21.50;99.90
17348;DHT22;8791;50.876;4.342;2022-08-01T06:24:04;21.50;99.90
17348;DHT22;8791;50.876;4.342;2022-08-01T06:26:31;21.30;99.90
17348;DHT22;8791;50.876;4.342;2022-08-01T06:28:58;21.10;99.90
17348;DHT22;8791;50.876;4.342;2022-08-01T06:31:26;20.90;99.90
17348;DHT22;8791;50.876;4.342;2022-08-01T06:33:53;21.00;99.90
17348;DHT22;8791;50.876;4.342;2022-08-01T06:36:22;21.20;99.90
17348;DHT22;8791;50.876;4.342;2022-08-01T06:38:49;21.30;99.90
17348;DHT22;8791;50.876;4.342;2022-08-01T06:41:16;21.50;99.90
17348;DHT22;8791;50.876;4.342;2022-08-01T06:43:43;21.80;99.90
17348;DHT22;8791;50.876;4.342;2022-08-01T06:46:09;22.10;99.90
17348;DHT22;8791;50.876;4.342;2022-08-01T06:48:38;22.30;99.90
17348;DHT22;8791;50.876;4.342;2022-08-01T06:51:05;22.20;99.90
17348;DHT22;8791;50.876;4.342;2022-08-01T06:53:36;22.20;99.90
17348;DHT22;8791;50.876;4.342;2022-08-01T06:56:04;22.40;99.90
17348;DHT22;8791;50.876;4.342;2022-08-01T06:58:32;22.60;99.90
17348;DHT22;8791;50.876;4.342;2022-08-01T07:00:59;22.30;99.90
17348;DHT22;8791;50.876;4.342;2022-08-01T07:03:26;22.30;99.90
17348;DHT22;8791;50.876;4.342;2022-08-01T07:05:55;22.30;99.90
17348;DHT22;8791;50.876;4.342;2022-08-01T07:08:21;22.20;99.90
17348;DHT22;8791;50.876;4.342;2022-08-01T07:10:48;22.20;99.90
17348;DHT22;8791;50.876;4.342;2022-08-01T07:13:15;22.20;99.90
17348;DHT22;8791;50.876;4.342;2022-08-01T07:15:46;22.30;99.90
17348;DHT22;8791;50.876;4.342;2022-08-01T07:18:12;22.60;99.90
17348;DHT22;8791;50.876;4.342;2022-08-01T07:20:39;22.60;99.90
17348;DHT22;8791;50.876;4.342;2022-08-01T07:23:07;22.50;99.90
17348;DHT22;8791;50.876;4.342;2022-08-01T07:25:34;22.60;99.90
17348;DHT22;8791;50.876;4.342;2022-08-01T07:28:01;22.60;99.90
17348;DHT22;8791;50.876;4.342;2022-08-01T07:30:28;22.60;99.90
17348;DHT22;8791;50.876;4.342;2022-08-01T07:32:55;22.80;99.90
17348;DHT22;8791;50.876;4.342;2022-08-01T07:35:22;23.00;99.90
17348;DHT22;8791;50.876;4.342;2022-08-01T07:37:48;23.00;99.90
17348;DHT22;8791;50.876;4.342;2022-08-01T07:40:17;22.90;99.90
17348;DHT22;8791;50.876;4.342;2022-08-01T07:42:45;23.10;99.90
17348;DHT22;8791;50.876;4.342;2022-08-01T07:45:12;23.30;99.90
17348;DHT22;8791;50.876;4.342;2022-08-01T07:47:39;23.20;99.90
17348;DHT22;8791;50.876;4.342;2022-08-01T07:50:07;23.40;99.90
17348;DHT22;8791;50.876;4.342;2022-08-01T07:52:34;23.60;99.90
17348;DHT22;8791;50.876;4.342;2022-08-01T07:55:01;23.40;99.90
17348;DHT22;8791;50.876;4.342;2022-08-01T07:57:29;23.40;99.90
17348;DHT22;8791;50.876;4.342;2022-08-01T07:59:56;23.30;99.90
17348;DHT22;8791;50.876;4.342;2022-08-01T08:02:23;23.20;99.90
17348;DHT22;8791;50.876;4.342;2022-08-01T08:04:49;23.20;99.90
17348;DHT22;8791;50.876;4.342;2022-08-01T08:07:16;23.10;99.90
17348;DHT22;8791;50.876;4.342;2022-08-01T08:09:43;23.00;99.90
17348;DHT22;8791;50.876;4.342;2022-08-01T08:12:10;23.10;99.90
17348;DHT22;8791;50.876;4.342;2022-08-01T08:14:39;23.10;99.90
17348;DHT22;8791;50.876;4.342;2022-08-01T08:17:06;23.10;99.90
17348;DHT22;8791;50.876;4.342;2022-08-01T08:19:34;23.10;99.90
17348;DHT22;8791;50.876;4.342;2022-08-01T08:22:03;23.10;99.90
17348;DHT22;8791;50.876;4.342;2022-08-01T08:24:30;23.00;99.90
17348;DHT22;8791;50.876;4.342;2022-08-01T08:26:58;22.90;99.90
17348;DHT22;8791;50.876;4.342;2022-08-01T08:29:25;23.10;99.90
17348;DHT22;8791;50.876;4.342;2022-08-01T08:31:54;23.20;99.90
17348;DHT22;8791;50.876;4.342;2022-08-01T08:34:21;23.40;99.90
17348;DHT22;8791;50.876;4.342;2022-08-01T08:36:48;23.50;99.90
17348;DHT22;8791;50.876;4.342;2022-08-01T08:39:16;23.60;99.90
17348;DHT22;8791;50.876;4.342;2022-08-01T08:41:43;23.80;99.90
17348;DHT22;8791;50.876;4.342;2022-08-01T08:44:10;23.70;99.90
17348;DHT22;8791;50.876;4.342;2022-08-01T08:46:41;23.90;99.90
17348;DHT22;8791;50.876;4.342;2022-08-01T08:49:11;23.90;99.90
17348;DHT22;8791;50.876;4.342;2022-08-01T08:51:39;24.00;99.90
17348;DHT22;8791;50.876;4.342;2022-08-01T08:54:10;24.10;99.90
17348;DHT22;8791;50.876;4.342;2022-08-01T08:56:38;24.30;99.90
17348;DHT22;8791;50.876;4.342;2022-08-01T08:59:05;24.20;99.90
17348;DHT22;8791;50.876;4.342;2022-08-01T09:01:32;24.10;99.90
17348;DHT22;8791;50.876;4.342;2022-08-01T09:04:01;24.10;99.90
17348;DHT22;8791;50.876;4.342;2022-08-01T09:06:29;23.70;99.90
17348;DHT22;8791;50.876;4.342;2022-08-01T09:08:56;23.80;99.90
17348;DHT22;8791;50.876;4.342;2022-08-01T09:11:23;23.90;99.90
17348;DHT22;8791;50.876;4.342;2022-08-01T09:14:12;23.90;99.90
17348;DHT22;8791;50.876;4.342;2022-08-01T09:16:41;24.00;99.90
17348;DHT22;8791;50.876;4.342;2022-08-01T09:19:10;24.10;99.90
17348;DHT22;8791;50.876;4.342;2022-08-01T09:21:39;24.00;99.90
17348;DHT22;8791;50.876;4.342;2022-08-01T09:24:14;23.90;99.90
17348;DHT22;8791;50.876;4.342;2022-08-01T09:26:41;23.80;99.90
17348;DHT22;8791;50.876;4.342;2022-08-01T09:29:17;23.60;99.90
17348;DHT22;8791;50.876;4.342;2022-08-01T09:31:45;23.70;99.90
17348;DHT22;8791;50.876;4.342;2022-08-01T09:34:12;23.60;99.90
17348;DHT22;8791;50.876;4.342;2022-08-01T09:36:49;23.60;99.90
17348;DHT22;8791;50.876;4.342;2022-08-01T09:39:19;23.60;99.90
17348;DHT22;8791;50.876;4.342;2022-08-01T09:41:46;23.70;99.90
17348;DHT22;8791;50.876;4.342;2022-08-01T09:44:13;23.70;99.90
17348;DHT22;8791;50.876;4.342;2022-08-01T09:46:51;23.70;99.90
17348;DHT22;8791;50.876;4.342;2022-08-01T09:49:28;23.90;99.90
17348;DHT22;8791;50.876;4.342;2022-08-01T09:51:57;23.90;99.90
17348;DHT22;8791;50.876;4.342;2022-08-01T09:54:29;24.00;99.90
17348;DHT22;8791;50.876;4.342;2022-08-01T09:57:11;24.00;99.90
17348;DHT22;8791;50.876;4.342;2022-08-01T09:59:39;24.40;99.90
17348;DHT22;8791;50.876;4.342;2022-08-01T10:02:08;24.20;99.90
17348;DHT22;8791;50.876;4.342;2022-08-01T10:04:36;24.10;99.90
17348;DHT22;8791;50.876;4.342;2022-08-01T10:07:06;24.30;99.90
17348;DHT22;8791;50.876;4.342;2022-08-01T10:09:35;24.40;99.90
17348;DHT22;8791;50.876;4.342;2022-08-01T10:12:03;24.60;99.90
17348;DHT22;8791;50.876;4.342;2022-08-01T10:14:30;24.80;99.90
17348;DHT22;8791;50.876;4.342;2022-08-01T10:16:59;25.20;99.90
17348;DHT22;8791;50.876;4.342;2022-08-01T10:19:28;25.30;99.90
17348;DHT22;8791;50.876;4.342;2022-08-01T10:21:58;25.40;99.90
17348;DHT22;8791;50.876;4.342;2022-08-01T10:24:28;25.40;99.90
17348;DHT22;8791;50.876;4.342;2022-08-01T10:26:58;25.50;99.90
17348;DHT22;8791;50.876;4.342;2022-08-01T10:29:34;25.70;99.90
17348;DHT22;8791;50.876;4.342;2022-08-01T10:32:04;25.70;99.90
17348;DHT22;8791;50.876;4.342;2022-08-01T10:34:31;25.70;99.90
17348;DHT22;8791;50.876;4.342;2022-08-01T10:37:00;25.50;99.90
17348;DHT22;8791;50.876;4.342;2022-08-01T10:39:29;25.50;99.90
17348;DHT22;8791;50.876;4.342;2022-08-01T10:41:56;25.40;99.90
17348;DHT22;8791;50.876;4.342;2022-08-01T10:44:25;25.10;99.90
17348;DHT22;8791;50.876;4.342;2022-08-01T10:46:57;24.80;99.90
17348;DHT22;8791;50.876;4.342;2022-08-01T10:49:27;25.00;99.90
17348;DHT22;8791;50.876;4.342;2022-08-01T10:51:55;25.20;99.90
17348;DHT22;8791;50.876;4.342;2022-08-01T10:54:24;25.40;99.90
17348;DHT22;8791;50.876;4.342;2022-08-01T10:56:53;25.40;99.90
17348;DHT22;8791;50.876;4.342;2022-08-01T10:59:23;25.40;99.90
17348;DHT22;8791;50.876;4.342;2022-08-01T11:01:57;25.40;99.90
17348;DHT22;8791;50.876;4.342;2022-08-01T11:04:33;25.40;99.90
17348;DHT22;8791;50.876;4.342;2022-08-01T11:07:05;25.30;99.90
17348;DHT22;8791;50.876;4.342;2022-08-01T11:09:40;25.40;99.90
17348;DHT22;8791;50.876;4.342;2022-08-01T11:12:10;25.30;99.90
17348;DHT22;8791;50.876;4.342;2022-08-01T11:17:43;25.60;99.90
17348;DHT22;8791;50.876;4.342;2022-08-01T11:20:14;25.80;99.90
17348;DHT22;8791;50.876;4.342;2022-08-01T11:26:20;26.10;99.90
17348;DHT22;8791;50.876;4.342;2022-08-01T11:29:14;26.20;99.90
17348;DHT22;8791;50.876;4.342;2022-08-01T11:31:41;26.40;99.90
17348;DHT22;8791;50.876;4.342;2022-08-01T11:34:08;26.40;99.90
17348;DHT22;8791;50.876;4.342;2022-08-01T11:36:35;26.40;99.90
17348;DHT22;8791;50.876;4.342;2022-08-01T11:39:16;26.20;99.90
17348;DHT22;8791;50.876;4.342;2022-08-01T11:41:44;26.50;99.90
17348;DHT22;8791;50.876;4.342;2022-08-01T11:44:15;26.50;99.90
17348;DHT22;8791;50.876;4.342;2022-08-01T11:46:47;26.40;99.90
17348;DHT22;8791;50.876;4.342;2022-08-01T11:49:32;26.00;99.90
17348;DHT22;8791;50.876;4.342;2022-08-01T11:52:02;25.80;99.90
17348;DHT22;8791;50.876;4.342;2022-08-01T11:54:32;25.90;99.90
17348;DHT22;8791;50.876;4.342;2022-08-01T11:57:01;26.10;99.90
17348;DHT22;8791;50.876;4.342;2022-08-01T11:59:36;26.10;99.90
17348;DHT22;8791;50.876;4.342;2022-08-01T12:02:03;26.20;99.90
17348;DHT22;8791;50.876;4.342;2022-08-01T12:04:45;26.20;99.90
17348;DHT22;8791;50.876;4.342;2022-08-01T12:07:12;26.20;99.90
17348;DHT22;8791;50.876;4.342;2022-08-01T12:09:39;25.90;99.90
17348;DHT22;8791;50.876;4.342;2022-08-01T12:12:07;26.20;99.90
17348;DHT22;8791;50.876;4.342;2022-08-01T12:14:35;26.40;99.90
17348;DHT22;8791;50.876;4.342;2022-08-01T12:17:02;26.30;99.90
17348;DHT22;8791;50.876;4.342;2022-08-01T12:19:29;26.40;99.90
17348;DHT22;8791;50.876;4.342;2022-08-01T12:22:08;26.50;99.90
17348;DHT22;8791;50.876;4.342;2022-08-01T12:24:35;26.40;99.90
17348;DHT22;8791;50.876;4.342;2022-08-01T12:27:03;26.20;99.90
17348;DHT22;8791;50.876;4.342;2022-08-01T12:29:39;26.50;99.90
17348;DHT22;8791;50.876;4.342;2022-08-01T12:32:24;26.70;99.90
17348;DHT22;8791;50.876;4.342;2022-08-01T12:34:53;26.80;99.90
17348;DHT22;8791;50.876;4.342;2022-08-01T12:37:21;27.00;99.90
17348;DHT22;8791;50.876;4.342;2022-08-01T12:39:48;26.80;99.90
17348;DHT22;8791;50.876;4.342;2022-08-01T12:42:15;26.60;99.90
17348;DHT22;8791;50.876;4.342;2022-08-01T12:44:45;26.90;99.90
17348;DHT22;8791;50.876;4.342;2022-08-01T12:47:13;26.90;99.90
17348;DHT22;8791;50.876;4.342;2022-08-01T12:49:42;27.00;99.90
17348;DHT22;8791;50.876;4.342;2022-08-01T12:52:10;26.90;99.90
17348;DHT22;8791;50.876;4.342;2022-08-01T12:54:59;27.00;99.90
17348;DHT22;8791;50.876;4.342;2022-08-01T12:57:26;26.70;99.90
17348;DHT22;8791;50.876;4.342;2022-08-01T13:00:05;26.70;99.90
17348;DHT22;8791;50.876;4.342;2022-08-01T13:02:33;26.70;99.90
17348;DHT22;8791;50.876;4.342;2022-08-01T13:05:00;26.80;99.90
17348;DHT22;8791;50.876;4.342;2022-08-01T13:07:35;26.60;99.90
17348;DHT22;8791;50.876;4.342;2022-08-01T13:10:03;26.40;99.90
17348;DHT22;8791;50.876;4.342;2022-08-01T13:12:30;26.20;99.90
17348;DHT22;8791;50.876;4.342;2022-08-01T13:14:58;26.20;99.90
17348;DHT22;8791;50.876;4.342;2022-08-01T13:17:32;26.20;99.90
17348;DHT22;8791;50.876;4.342;2022-08-01T13:20:00;26.60;99.90
17348;DHT22;8791;50.876;4.342;2022-08-01T13:22:34;26.70;99.90
17348;DHT22;8791;50.876;4.342;2022-08-01T13:25:11;26.20;99.90
17348;DHT22;8791;50.876;4.342;2022-08-01T13:27:38;25.90;99.90
17348;DHT22;8791;50.876;4.342;2022-08-01T13:30:13;25.90;99.90
17348;DHT22;8791;50.876;4.342;2022-08-01T13:32:40;25.90;99.90
17348;DHT22;8791;50.876;4.342;2022-08-01T13:35:10;25.80;99.90
17348;DHT22;8791;50.876;4.342;2022-08-01T13:37:39;25.80;99.90
17348;DHT22;8791;50.876;4.342;2022-08-01T13:40:08;25.90;99.90
17348;DHT22;8791;50.876;4.342;2022-08-01T13:42:36;26.00;99.90
17348;DHT22;8791;50.876;4.342;2022-08-01T13:45:05;26.30;99.90
17348;DHT22;8791;50.876;4.342;2022-08-01T13:47:37;26.20;99.90
17348;DHT22;8791;50.876;4.342;2022-08-01T13:50:05;26.20;99.90
17348;DHT22;8791;50.876;4.342;2022-08-01T13:52:32;26.10;99.90
17348;DHT22;8791;50.876;4.342;2022-08-01T13:54:59;25.90;99.90
17348;DHT22;8791;50.876;4.342;2022-08-01T13:57:27;25.90;99.90
17348;DHT22;8791;50.876;4.342;2022-08-01T13:59:54;26.10;99.90
17348;DHT22;8791;50.876;4.342;2022-08-01T14:02:21;26.00;99.90
17348;DHT22;8791;50.876;4.342;2022-08-01T14:04:49;26.30;99.90
17348;DHT22;8791;50.876;4.342;2022-08-01T14:07:16;26.30;99.90
17348;DHT22;8791;50.876;4.342;2022-08-01T14:09:43;26.20;99.90
17348;DHT22;8791;50.876;4.342;2022-08-01T14:12:09;26.10;99.90
17348;DHT22;8791;50.876;4.342;2022-08-01T14:14:36;26.20;99.90
17348;DHT22;8791;50.876;4.342;2022-08-01T14:17:04;26.20;99.90
17348;DHT22;8791;50.876;4.342;2022-08-01T14:19:31;26.30;99.90
17348;DHT22;8791;50.876;4.342;2022-08-01T14:21:59;25.90;99.90
17348;DHT22;8791;50.876;4.342;2022-08-01T14:24:26;26.10;99.90
17348;DHT22;8791;50.876;4.342;2022-08-01T14:26:53;26.30;99.90
17348;DHT22;8791;50.876;4.342;2022-08-01T14:29:20;26.20;99.90
17348;DHT22;8791;50.876;4.342;2022-08-01T14:31:47;26.20;99.90
17348;DHT22;8791;50.876;4.342;2022-08-01T14:34:13;26.30;99.90
17348;DHT22;8791;50.876;4.342;2022-08-01T14:36:41;26.30;99.90
17348;DHT22;8791;50.876;4.342;2022-08-01T14:39:09;26.30;99.90
17348;DHT22;8791;50.876;4.342;2022-08-01T14:41:36;26.30;99.90
17348;DHT22;8791;50.876;4.342;2022-08-01T14:44:03;26.30;99.90
17348;DHT22;8791;50.876;4.342;2022-08-01T14:46:31;26.40;99.90
17348;DHT22;8791;50.876;4.342;2022-08-01T14:48:58;26.60;99.90
17348;DHT22;8791;50.876;4.342;2022-08-01T14:51:25;26.60;99.90
17348;DHT22;8791;50.876;4.342;2022-08-01T14:53:51;26.50;99.90
17348;DHT22;8791;50.876;4.342;2022-08-01T14:56:20;26.40;99.90
17348;DHT22;8791;50.876;4.342;2022-08-01T14:58:47;26.30;99.90
17348;DHT22;8791;50.876;4.342;2022-08-01T15:01:14;26.50;99.90
17348;DHT22;8791;50.876;4.342;2022-08-01T15:03:41;26.60;99.90
17348;DHT22;8791;50.876;4.342;2022-08-01T15:06:08;26.50;99.90
17348;DHT22;8791;50.876;4.342;2022-08-01T15:08:37;26.40;99.90
17348;DHT22;8791;50.876;4.342;2022-08-01T15:11:03;26.40;99.90
17348;DHT22;8791;50.876;4.342;2022-08-01T15:13:32;26.60;99.90
17348;DHT22;8791;50.876;4.342;2022-08-01T15:15:59;26.40;99.90
17348;DHT22;8791;50.876;4.342;2022-08-01T15:18:26;26.30;99.90
17348;DHT22;8791;50.876;4.342;2022-08-01T15:20:53;26.40;99.90
17348;DHT22;8791;50.876;4.342;2022-08-01T15:23:20;26.50;99.90
17348;DHT22;8791;50.876;4.342;2022-08-01T15:25:47;26.70;99.90
17348;DHT22;8791;50.876;4.342;2022-08-01T15:28:14;26.90;99.90
17348;DHT22;8791;50.876;4.342;2022-08-01T15:30:42;26.90;99.90
17348;DHT22;8791;50.876;4.342;2022-08-01T15:33:10;26.90;99.90
17348;DHT22;8791;50.876;4.342;2022-08-01T15:35:37;26.80;99.90
17348;DHT22;8791;50.876;4.342;2022-08-01T15:38:05;26.90;99.90
17348;DHT22;8791;50.876;4.342;2022-08-01T15:40:32;27.00;99.90
17348;DHT22;8791;50.876;4.342;2022-08-01T15:43:00;27.40;99.90
17348;DHT22;8791;50.876;4.342;2022-08-01T15:45:27;28.30;99.90
17348;DHT22;8791;50.876;4.342;2022-08-01T15:47:56;29.30;99.90
17348;DHT22;8791;50.876;4.342;2022-08-01T15:50:23;29.50;99.90
17348;DHT22;8791;50.876;4.342;2022-08-01T15:52:50;28.80;99.90
17348;DHT22;8791;50.876;4.342;2022-08-01T15:55:17;28.30;99.90
17348;DHT22;8791;50.876;4.342;2022-08-01T15:57:44;28.50;99.90
17348;DHT22;8791;50.876;4.342;2022-08-01T16:00:11;29.20;98.70
17348;DHT22;8791;50.876;4.342;2022-08-01T16:02:39;29.50;97.90